x

Santa Monica Basin - 33nm Wsw Of Santa Monica, Ca (46025) Wave Buoy

9:50 - Mon 26th Sep 2016 All times are PDT. -7 hours from GMT.

  • Sig Wave height 2.6ft
  • Swell Direction
  • Peak Period 15s
  • Average Period 8s
  • Wind
    4mph
  • Sea Temp 69°f
  • Aire Temp 74°f
  • Sea Pressure 1013.9mb
  • Santa Monica Basin - 33nm Wsw Of Santa Monica, Ca
  • Santa Monica Basin - 33nm Wsw Of Santa Monica, Ca

More Historic Weather Station data

Upgrade to MSW Pro to gain access to the past 30 days of data for over 8000 Wavebouys and Weather Stations around the globe.

Join Pro

Comparision Forecast

View Surf forecast
   
lun 09/26 9:50 2.5ft 15s 8s 4
mph
1013.9mb 69f 74f
9:40 2.5ft  -  8s 4
mph
1013.8mb 69f 75f
9:30  -   -   -  4
mph
1013.8mb 69f 75f
9:20  -   -   -  4 7 mph 1013.8mb 69f 75f
9:10  -   -   -  4 7 mph 1013.8mb 69f 76f
9:00  -   -   -  4 7 mph 1013.6mb 69f 76f
8:50 2.5ft 16s 9s 4
mph
1013.5mb 69f 75f
8:40 2.5ft  -  9s 2 4 mph 1013.5mb 69f 75f
8:30  -   -   -  2 4 mph 1013.5mb 69f 74f
8:20  -   -   -  2 4 mph 1013.5mb 69f 73f
8:10  -   -   -   -  2 mph 1013.5mb 69f 73f
8:00  -   -   -   -  2 mph 1013.5mb 69f 72f
7:50 2.5ft 15s 8s  -  mph 1013.5mb 69f 71f
7:40  -   -   -   -  2 mph 1013.5mb 69f 71f
7:30  -   -   -  2 4 mph 1013.5mb 69f 71f
7:20  -   -   -  4 7 mph 1013.3mb 69f 71f
7:10  -   -   -  4
mph
1013.1mb 69f 71f
7:00  -   -   -  4 7 mph 1013mb 69f 71f
6:50 3ft 15s 8s 4 9 mph 1013mb 69f 72f
6:40 3ft  -  8s 4 7 mph 1012.8mb 69f 72f
6:30  -   -   -  4
mph
1012.6mb 69f 70f
6:20  -   -   -  2 4 mph 1012.6mb 69f 70f
6:10  -   -   -  4 7 mph 1012.5mb 69f 70f
6:00  -   -   -  4
mph
1012.6mb 69f 70f
5:50 2.5ft 14s 7s 2 4 mph 1012.5mb 69f 70f
5:40 2.5ft  -  7s 2 4 mph 1012.5mb 69f 71f
5:30  -   -   -  4
mph
1012.4mb 69f 71f
5:20  -   -   -  4
mph
1012.4mb 69f 71f
5:10  -   -   -  4
mph
1012.4mb 69f 70f
5:00  -   -   -  2
mph
1012.3mb 69f 69f
4:50 2.5ft 15s 7s  -  mph 1012.1mb 69f 70f
4:40  -   -   -  2 4 mph 1012.3mb 69f 70f
4:30  -   -   -  4
mph
1012.1mb 69f 70f
4:20  -   -   -  2
mph
1012.1mb 69f 69f
4:10  -   -   -  2 4 mph 1012.3mb 69f 69f
4:00  -   -   -  2 4 mph 1012.1mb 69f 70f
3:50 2.5ft 15s 7s 2
mph
1012.1mb 69f 69f
3:40  -   -   -  2
mph
1012.3mb 69f 69f
3:30  -   -   -   -  2 mph 1012.4mb 69f 70f
3:20  -   -   -  2
mph
1012.4mb 69f 70f
3:10  -   -   -  4 7 mph 1012.5mb 69f 70f
3:00  -   -   -  7 9 mph 1012.5mb 69f 70f
2:50 3ft 16s 6s 7 9 mph 1012.4mb 69f 70f
2:40  -   -   -  4
mph
1012.5mb 69f 70f
2:30  -   -   -  4 7 mph 1012.8mb 69f 70f
2:20  -   -   -  2 4 mph 1012.8mb 69f 70f
2:10  -   -   -  2 4 mph 1012.8mb 69f 70f
2:00  -   -   -  4 7 mph 1012.8mb 69f 70f
1:50 3ft 16s 6s 7
mph
1012.8mb - 71f
1:40  -   -   -  4 7 mph 1012.8mb 69f 70f
1:30  -   -   -  4 7 mph 1012.8mb 69f 70f
1:20  -   -   -  4 7 mph 1012.9mb 69f 70f
1:10  -   -   -  4 9 mph 1012.9mb 69f 70f
1:00  -   -   -  7 9 mph 1012.9mb 69f 70f
12:50 3.5ft 15s 6s 9 11 mph 1012.9mb 69f 70f
12:40 3.5ft  -  6s 11 13 mph 1012.9mb 69f 70f
12:30  -   -   -  11 13 mph 1012.9mb 69f 71f
12:20  -   -   -  11 13 mph 1013mb - 71f
12:10  -   -   -  11 13 mph 1013mb 69f 72f
12:00  -   -   -  13 16 mph 1013mb 69f 72f
dom 09/25 11:50 3.5ft 16s 5s 11 13 mph 1013.1mb 69f 72f
11:40 3.5ft  -  5s 11 16 mph 1013mb 69f 73f
11:30  -   -   -  13 16 mph 1013mb 69f 73f
11:20  -   -   -  11 16 mph 1013mb 69f 74f
11:10  -   -   -  16 18 mph 1012.9mb 69f 75f
11:00  -   -   -  13 18 mph 1012.9mb 69f 74f
10:50 3.5ft 15s 5s 18 22 mph 1013mb 69f 73f
10:40 3.5ft  -  5s 16 20 mph 1012.9mb 69f 73f
10:30  -   -   -  16 20 mph 1013mb 69f 73f
10:20  -   -   -  16 20 mph 1013mb 69f 73f
10:10  -   -   -  18 22 mph 1012.9mb 69f 73f
10:00  -   -   -  18 22 mph 1012.8mb 69f 73f
9:50 3.5ft 16s 5s 18 22 mph 1012.5mb 69f 72f
9:40  -   -   -  18 22 mph 1012.5mb 69f 72f
9:30  -   -   -  18 22 mph 1012.4mb 68f 72f
9:20  -   -   -  18 22 mph 1012.4mb 68f 72f
9:10  -   -   -  18 25 mph 1012.3mb 68f 73f
9:00  -   -   -  18 22 mph 1012.3mb 68f 73f
8:50 3ft 15s 5s 20 25 mph 1012mb 68f 73f
8:40  -   -   -  20 25 mph 1011.6mb 68f 72f
8:30  -   -   -  20 25 mph 1011.5mb 68f 71f
8:20  -   -   -  20 25 mph 1011.6mb 68f 71f
8:10  -   -   -  22 25 mph 1011.5mb 68f 72f
8:00  -   -   -  20 25 mph 1011.5mb - -
7:50 3ft 16s 7s 18 22 mph 1011.6mb 68f 71f
7:40  -   -   -  18 20 mph 1011.6mb 68f 71f
7:30  -   -   -  16 20 mph 1011.8mb 68f 71f
7:20  -   -   -  13 16 mph 1011.9mb 68f 71f
7:10  -   -   -  16 18 mph 1011.9mb 68f 71f
7:00  -   -   -  13 16 mph 1012.3mb 68f 71f
6:50 3.5ft 16s 9s 11 16 mph 1011.9mb 68f 72f
6:40 3.5ft  -  9s 7 11 mph 1012.4mb 68f 71f
6:30  -   -   -  7 9 mph 1012.4mb 68f 71f
6:20  -   -   -  7 11 mph 1012.1mb 68f 71f
6:10  -   -   -  4 9 mph 1012.4mb 68f 72f
6:00  -   -   -  2 7 mph 1012.4mb 68f 71f
5:50 3ft 16s 8s 7 9 mph 1012.1mb 68f 72f
5:40 3ft  -  8s 9 11 mph 1012mb 68f 73f
5:30  -   -   -  9 11 mph 1011.9mb 68f 73f
5:20  -   -   -  7 9 mph 1012mb 68f 71f
5:10  -   -   -  7 9 mph 1012mb 69f 71f
5:00  -   -   -  9 11 mph 1012.1mb 68f 71f
4:50 3ft 15s 9s 11 13 mph 1012.4mb 68f 71f
4:40 3ft  -  9s 11 13 mph 1012.3mb 69f 70f
4:30  -   -   -  9 11 mph 1012.5mb 69f 71f
4:20  -   -   -  9 11 mph 1012.6mb 69f 71f
4:10  -   -   -  9 13 mph 1012.9mb 69f 71f
4:00  -   -   -  11 13 mph 1013mb 69f 71f
3:50 3.5ft 16s 9s 11 13 mph 1012.9mb 69f 71f
3:40 3.5ft  -  9s 9 13 mph 1013.1mb 69f 71f
3:30  -   -   -  7 9 mph 1013.1mb 69f 71f
3:20  -   -   -  9 11 mph 1013.3mb 69f 71f
3:10  -   -   -  9 11 mph 1013mb 69f 71f
3:00  -   -   -  7 9 mph 1013.3mb 69f 71f
2:50 2.5ft 16s 8s 7 9 mph 1013.4mb 69f 71f
2:40 2.5ft  -  8s 9 11 mph 1013.5mb 69f 71f
2:30  -   -   -  7 9 mph 1013.5mb 69f 71f
2:20  -   -   -  7 9 mph 1013.8mb 69f 71f
2:10  -   -   -  7 9 mph 1014mb 69f 71f
2:00  -   -   -  7
mph
1014mb 69f 71f
1:50 2.5ft 15s 8s 7
mph
1014.3mb 69f 71f
1:40 2.5ft  -  8s 4 7 mph 1014.4mb 69f 71f
1:30  -   -   -  4 7 mph 1014.6mb 69f 71f
1:20  -   -   -  7 9 mph 1014.8mb 69f 70f
1:10  -   -   -  7 9 mph 1014.8mb 69f 70f
1:00  -   -   -  7 9 mph 1015mb 69f 70f
12:50 2.5ft 16s 8s 9 11 mph 1015mb 69f 70f
12:40  -   -   -  7 9 mph 1015.1mb 69f 70f
12:30  -   -   -  9
mph
1015.4mb 69f 70f
12:20  -   -   -  7 9 mph 1015.4mb 69f 70f
12:10  -   -   -  7 9 mph 1015.5mb 69f 70f
12:00  -   -   -  7
mph
1015.6mb 69f 69f
11:50 3ft 16s 8s 4 7 mph 1015.8mb 69f 69f
11:40 3ft  -  8s 7
mph
1015.8mb - 69f
11:30  -   -   -  7 9 mph 1016mb 69f 69f
11:20  -   -   -  4 7 mph 1016mb 69f 69f
11:10  -   -   -  4
mph
1016.3mb 69f 70f
11:00  -   -   -  2 4 mph 1016.4mb 69f 70f
10:50 3ft 16s 8s  -  2 mph 1016.5mb 69f 70f
10:40 3ft  -  8s 2 4 mph 1016.5mb 69f 70f
10:30  -   -   -  2 4 mph 1016.4mb 69f 69f
10:20  -   -   -  2 4 mph 1016.3mb 69f 69f
10:10  -   -   -  4
mph
1016.1mb 69f 69f
10:00  -   -   -  4
mph
1016.1mb 69f 69f
9:50 3ft 16s 8s 4
mph
1016.1mb 69f 69f
9:40 3ft  -  8s 4
mph
1016mb 68f 69f
9:30  -   -   -  4
mph
1016.1mb 68f 69f
9:20  -   -   -  2 4 mph 1016mb 68f 69f
9:10  -   -   -  4
mph
1016mb 68f 69f
9:00  -   -   -  2 4 mph 1016mb 68f 69f
8:50 3.5ft 16s 8s 2 4 mph 1016mb 68f 69f
8:40 3.5ft  -  8s 2
mph
1016mb 68f 68f
8:30  -   -   -  2 4 mph 1015.9mb 68f 68f
8:20  -   -   -  2
mph
1015.9mb 68f 68f
8:10  -   -   -   -  2 mph 1016mb 68f 68f
8:00  -   -   -   -  2 mph 1015.9mb 68f 68f
7:50 3.5ft 16s 8s  -  2 mph 1015.8mb 68f 68f
7:40  -   -   -  2 4 mph 1015.5mb 68f 68f
7:30  -   -   -  2 4 mph 1015.4mb 68f 68f
7:20  -   -   -  4
mph
1015.1mb 68f 67f
7:10  -   -   -  2 4 mph 1015.1mb 68f 67f
7:00  -   -   -  4
mph
1015mb 68f 67f
6:50 3ft 16s 8s 4
mph
1015mb 68f 67f
6:40 3ft  -  8s 2 4 mph 1015mb 68f 67f
6:30  -   -   -  2 4 mph 1014.9mb 68f 67f
6:20  -   -   -   -  2 mph 1014.9mb 68f 67f
6:10  -   -   -  2
mph
1014.6mb 68f 67f
6:00  -   -   -  2
mph
1014.5mb 68f 67f
5:50 3ft 16s 7s 2
mph
1014.5mb 67f 67f
5:40  -   -   -   -  2 mph 1014.4mb 68f 66f
5:30  -   -   -   -  2 mph 1014.4mb 68f 66f
5:20  -   -   -  2 4 mph 1014.3mb 67f 67f
5:10  -   -   -  2 4 mph 1014.1mb 67f 67f
5:00  -   -   -  2 4 mph 1014.1mb 67f 67f
4:50 3ft 16s 7s 2 4 mph 1014mb 67f 67f
4:40 3ft  -  7s 4
mph
1014mb 67f 68f
4:30  -   -   -  4 7 mph 1014mb 67f 68f
4:20  -   -   -  7
mph
1014mb 67f 68f
4:10  -   -   -  4 7 mph 1013.9mb 67f 68f
4:00  -   -   -  2 4 mph 1013.8mb 67f 68f
3:50 3ft 16s 6s 2 4 mph 1013.8mb 67f 68f
3:40  -   -   -  4 7 mph 1014mb 67f 68f
3:30  -   -   -  2
mph
1014mb 67f 67f
3:20  -   -   -  2 4 mph 1013.9mb 67f 68f
3:10  -   -   -  2 4 mph 1014mb 67f 68f
3:00  -   -   -  2 4 mph 1014mb 67f 68f
2:50 3ft 16s 6s 2 4 mph 1014.3mb 67f 68f
2:40 3ft  -  6s 2 4 mph 1014.4mb 67f 68f
2:30  -   -   -  2 7 mph 1014.3mb 67f 69f
2:20  -   -   -  7 9 mph 1014.1mb 67f 69f
2:10  -   -   -  4 9 mph 1014.1mb 67f 69f
2:00  -   -   -  7 13 mph 1014mb 67f 69f
1:50 3.5ft 16s 8s 9 13 mph 1014mb 67f 69f
1:40  -   -   -  9 11 mph 1014mb 67f 68f
1:30  -   -   -  9 11 mph 1014mb 67f 68f
1:20  -   -   -  9 11 mph 1014mb 67f 69f
1:10  -   -   -  9 11 mph 1014mb 67f 68f
1:00  -   -   -  9 11 mph 1014mb 67f 68f
12:50 2.5ft 16s 6s 9 11 mph 1014mb 67f 68f
12:40 2.5ft  -  6s 9 11 mph 1014mb 67f 68f
12:30  -   -   -  9 11 mph 1014.1mb 67f 68f
12:20  -   -   -  9 11 mph 1014.3mb 67f 68f
12:10  -   -   -  9 11 mph 1014.3mb 67f 68f
12:00  -   -   -  9 11 mph 1014.1mb 67f 68f
sáb 09/24 11:50 3.5ft 16s 7s 9
mph
1014.1mb 67f 68f
11:40  -   -   -  9 11 mph 1014.4mb 67f 68f
11:30  -   -   -  9 11 mph 1014.4mb 68f 68f
11:20  -   -   -  7 9 mph 1014.5mb 67f 68f
11:10  -   -   -  7 9 mph 1014.5mb 68f 68f
11:00  -   -   -  7 9 mph 1014.5mb 68f 68f
10:50 3.5ft 16s 8s 9 11 mph 1014.4mb 68f 68f
10:40 3.5ft  -  8s 9 11 mph 1014.4mb 68f 68f
10:30  -   -   -  7 9 mph 1014.5mb 68f 68f
10:20  -   -   -  9 11 mph 1014.4mb 68f 68f
10:10  -   -   -  11 13 mph 1014.4mb 68f 68f
10:00  -   -   -  11 13 mph 1014.4mb 68f 68f
9:50 3ft 16s 8s 11 16 mph 1014.1mb 69f 68f
9:40 3ft  -  8s 11
mph
1014.1mb 69f 68f
9:30  -   -   -  9 11 mph 1014.4mb 69f 68f
9:20  -   -   -  9 11 mph 1014.4mb 68f 68f
9:10  -   -   -  9 11 mph 1014.5mb 68f 68f
9:00  -   -   -  11 13 mph 1014.5mb 68f 69f
8:50 3ft 16s 8s 11 13 mph 1014.4mb 68f 69f
8:40  -   -   -  9 11 mph 1014.3mb 68f 69f
8:30 3ft  -  8s 7 9 mph 1014.3mb 68f 69f
8:20  -   -   -  9 11 mph 1014.3mb 68f 69f
8:10  -   -   -  9
mph
1014.1mb 68f 69f
8:00  -   -   -  9 11 mph 1014mb 68f 69f
7:50 3ft 16s 8s 9 11 mph 1014mb 68f 69f
7:40 3ft  -  8s 9 11 mph 1014mb 68f 69f
7:30  -   -   -  9 11 mph 1014mb 68f 69f
7:20  -   -   -  9 11 mph 1014mb 68f 68f
7:10  -   -   -  9 11 mph 1013.9mb 68f 68f
7:00  -   -   -  9 11 mph 1013.9mb 68f 68f
6:50 3.5ft 16s 9s 9 11 mph 1013.8mb 68f 68f
6:40 3.5ft  -  9s 9
mph
1013.9mb 68f 69f
6:30  -   -   -  9 11 mph 1013.9mb 68f 69f
6:20  -   -   -  9 11 mph 1013.8mb 68f 69f
6:10  -   -   -  11 13 mph 1013.9mb 68f 69f
6:00  -   -   -  9 11 mph 1013.9mb 69f 69f
5:50 3ft 17s 8s 9 11 mph 1013.9mb 69f 69f
5:40 3ft  -  8s 9 11 mph 1014mb 69f 69f
5:30  -   -   -  9 11 mph 1014mb 69f 69f
5:20  -   -   -  9 11 mph 1014mb 69f 69f
5:10  -   -   -  9
mph
1014mb 69f 69f
5:00  -   -   -  9 11 mph 1014mb 69f 70f
4:50 4ft 17s 9s 9
mph
1014.1mb 69f 70f
4:40 4ft  -  9s 9 11 mph 1014.1mb 69f 70f
4:30  -   -   -  9
mph
1014.4mb 69f 70f
4:20  -   -   -  7 9 mph 1014.4mb 69f 70f
4:10  -   -   -  7 9 mph 1014.4mb 70f 70f
4:00  -   -   -  7 9 mph 1014.4mb 69f 70f
3:50 4ft 17s 9s 7 9 mph 1014.5mb 69f 70f
3:40 4ft  -  9s 7 9 mph 1014.5mb 68f 70f
3:30  -   -   -  7 9 mph 1014.6mb 69f 70f
3:20  -   -   -  9
mph
1014.6mb 68f 70f
3:10  -   -   -  9
mph
1014.8mb 68f 70f
3:00  -   -   -  9 11 mph 1014.9mb 68f 70f
2:50 3.5ft 16s 8s 7 9 mph 1014.9mb 68f 70f
2:40  -   -   -  7 9 mph 1014.9mb 68f 70f
2:30  -   -   -  7
mph
1015mb 68f 70f
2:20  -   -   -  7
mph
1015.1mb 68f 70f
2:10  -   -   -  7
mph
1015.3mb 68f 70f
2:00  -   -   -  7 9 mph 1015.4mb 68f 70f
1:50 4.5ft 16s 9s 7
mph
1015.5mb 68f 70f
1:40  -   -   -  7
mph
1015.5mb 68f 70f
1:30  -   -   -  4 7 mph 1015.5mb 68f 70f
1:20  -   -   -  4
mph
1015.8mb 68f 69f
1:10  -   -   -  4
mph
1015.8mb 68f 69f
1:00  -   -   -  4
mph
1015.8mb 68f 69f
12:50 3.5ft 17s 8s 4
mph
1015.9mb 68f 69f
12:40  -   -   -  4
mph
1016mb 68f 69f
12:30  -   -   -  4 7 mph 1016.1mb 68f 69f
12:20  -   -   -  4 7 mph 1016.1mb 68f 69f
12:10  -   -   -  4 7 mph 1016.1mb 68f 69f
12:00  -   -   -  4 7 mph 1016.3mb 68f 69f
11:50 3.5ft 17s 7s 4 7 mph 1016.3mb 68f 69f
11:40 3.5ft  -  7s 4 7 mph 1016.1mb - 69f
11:30  -   -   -  4 7 mph 1016.1mb 68f 69f
11:20  -   -   -  4 7 mph 1016.1mb 68f 69f
11:10  -   -   -  4
mph
1016.1mb 68f 69f
11:00  -   -   -  4
mph
1016.3mb 68f 69f
10:50 3.5ft 17s 8s 4
mph
1016.4mb 68f 69f
10:40  -   -   -  4
mph
1016.5mb 68f 69f
10:30  -   -   -  2 4 mph 1016.5mb 68f 69f
10:20  -   -   -  4
mph
1016.6mb 68f 69f
10:10  -   -   -  4 7 mph 1016.5mb 68f 69f
10:00  -   -   -  4 7 mph 1016.5mb 68f 69f
9:50 4ft 17s 8s 4 7 mph 1016.5mb 68f 69f
9:40 4ft  -  8s 4 7 mph 1016.4mb 67f 69f
9:30  -   -   -  4
mph
1016.1mb 67f 69f
9:20  -   -   -  4 7 mph 1016.1mb 67f 69f
9:10  -   -   -  4 7 mph 1016mb 67f 69f
9:00  -   -   -  4 7 mph 1016mb 67f 68f
8:50 4.5ft 17s 8s 4 7 mph 1015.8mb 67f 68f
8:40  -   -   -  7 9 mph 1015.8mb 68f 68f
8:30  -   -   -  9 11 mph 1015.8mb 68f 68f
8:20  -   -   -  9 11 mph 1015.8mb 68f 68f
8:10  -   -   -  7 9 mph 1015.5mb 68f 68f
8:00  -   -   -  4 7 mph 1015.5mb 68f 68f
7:50 3.5ft 17s 7s 4 7 mph 1015.5mb 68f 68f
7:40 3.5ft  -  7s 4 7 mph 1015.4mb 68f 67f
7:30  -   -   -  7 9 mph 1015.4mb 68f 67f
7:20  -   -   -  4 7 mph 1015.3mb 68f 67f
7:10  -   -   -  7
mph
1015.3mb 68f 67f
7:00  -   -   -  4 7 mph 1015mb 68f 67f
6:50 3.5ft 17s 7s 7 9 mph 1014.6mb 68f 67f
6:40 3.5ft  -  7s 4 7 mph 1014.6mb 68f 67f
6:30  -   -   -  4 7 mph 1014.9mb 68f 67f
6:20  -   -   -  7 9 mph 1015mb 68f 67f
6:10  -   -   -  4 7 mph 1015mb 68f 67f
6:00  -   -   -  7
mph
1014.9mb 68f 67f
5:50 4.5ft 17s 7s 4 7 mph 1014.8mb 68f 67f
5:40 4.5ft  -  7s 4 7 mph 1014.5mb 68f 67f
5:30  -   -   -  4 7 mph 1014.3mb 68f 67f
5:20  -   -   -  4 7 mph 1014.1mb 68f 67f
5:10  -   -   -  4 7 mph 1014mb 68f 67f
5:00  -   -   -  7
mph
1014.1mb 68f 67f
4:50 3.5ft 17s 7s 7
mph
1014mb 67f 67f
4:40  -   -   -  7
mph
1014.1mb 67f 67f
4:30  -   -   -  7 9 mph 1014.1mb 67f 67f
4:20  -   -   -  7 9 mph 1014.1mb 67f 67f
4:10  -   -   -  7 9 mph 1014mb 67f 67f
4:00  -   -   -  7 9 mph 1014mb 67f 67f
3:50 4.5ft 17s 7s 7 9 mph 1013.9mb 67f 67f
3:40  -   -   -  7 9 mph 1013.9mb 67f 67f
3:30  -   -   -  7 9 mph 1014mb 67f 67f
3:20  -   -   -  7 9 mph 1014mb 67f 67f
3:10  -   -   -  9 11 mph 1014.1mb 67f 67f
3:00  -   -   -  9 11 mph 1014.4mb 67f 67f
2:50 4.5ft 17s 6s 11 13 mph 1014.5mb 67f 67f
2:40  -   -   -  9 11 mph 1014.3mb 67f 67f
2:30  -   -   -  9 11 mph 1014.3mb 67f 68f
2:20  -   -   -  9 11 mph 1014.4mb 67f 68f
2:10  -   -   -  9 11 mph 1014.4mb 67f 68f
2:00  -   -   -  9 11 mph 1014.4mb 67f 68f
1:40  -   -   -  7 9 mph 1014.1mb 67f 68f
1:30  -   -   -  7 9 mph 1014.1mb 67f 68f
1:20  -   -   -  7 9 mph 1014mb 67f 68f
1:10  -   -   -  4 7 mph 1014mb 67f 68f
1:00  -   -   -  7
mph
1014.1mb 67f 68f
12:50 4.5ft 17s 6s 7 9 mph 1014mb 67f 68f
12:40 4.5ft  -  6s 7
mph
1014mb 67f 68f
12:30  -   -   -  7 9 mph 1014.3mb 67f 68f
12:20  -   -   -  9 11 mph 1014.4mb 67f 68f
12:10  -   -   -  7 9 mph 1014.1mb 67f 68f
12:00  -   -   -  7 9 mph 1014.3mb 67f 68f
vie 09/23 11:50 4.5ft 17s 6s 9 11 mph 1014.3mb 67f 69f
11:40 4.5ft  -  6s 9 11 mph 1014.3mb 67f 69f
11:30  -   -   -  9 11 mph 1014.3mb 67f 68f
11:20  -   -   -  9 11 mph 1014.1mb 67f 68f
11:10  -   -   -  9 11 mph 1014.4mb 67f 68f
11:00  -   -   -  9 11 mph 1014.3mb 67f 68f
10:50 4.5ft 17s 6s 11 13 mph 1014.1mb 67f 69f
10:40 4.5ft  -  6s 11 13 mph 1014mb 67f 69f
10:30  -   -   -  11 13 mph 1014mb 67f 69f
10:20  -   -   -  11 13 mph 1013.9mb 67f 69f
10:10  -   -   -  9 11 mph 1014mb 67f 69f
10:00  -   -   -  9 11 mph 1014mb 67f 69f
9:50 4ft 17s 6s 11 13 mph 1013.9mb 67f 69f
9:40 4ft  -  6s 9 11 mph 1013.8mb 67f 68f
9:30  -   -   -  4 7 mph 1013.8mb 67f 68f
9:20  -   -   -  4 7 mph 1013.8mb 67f 68f
9:10  -   -   -  7 9 mph 1013.8mb 67f 68f
9:00  -   -   -  7 9 mph 1013.8mb 67f 68f
8:50 4.5ft 17s 6s 7 9 mph 1013.9mb 67f 67f
8:40 4.5ft  -  6s 7 9 mph 1013.8mb 67f 67f
8:30  -   -   -  4 7 mph 1013.8mb 67f 67f
8:20  -   -   -  4 7 mph 1013.5mb 67f 67f
8:10  -   -   -  4 7 mph 1013.5mb 67f 67f
8:00  -   -   -  4 7 mph 1013.3mb 67f 67f
7:50 4.5ft 17s 6s 7
mph
1013.3mb 67f 67f
7:40 4.5ft  -  6s 7 9 mph 1013.3mb 67f 67f
7:30  -   -   -  7 9 mph 1013.3mb 67f 67f
7:20  -   -   -  7 9 mph 1013.3mb 67f 67f
7:10  -   -   -  9 11 mph 1013mb 67f 67f
7:00  -   -   -  9 11 mph 1013mb 67f 67f
6:50 4.5ft 17s 5s 11 13 mph 1013mb 67f 67f
6:40 4.5ft  -  5s 13 16 mph 1013mb 67f 67f
6:30  -   -   -  13 16 mph 1013mb 67f 67f
6:20  -   -   -  13 16 mph 1013mb 67f 67f
6:10  -   -   -  16 18 mph 1013mb 67f 67f
6:00  -   -   -  16 20 mph 1013mb 67f 67f
5:50 4.5ft 17s 5s 18 20 mph 1013mb 67f 67f
5:40 4.5ft  -  5s 18 22 mph 1013mb - 67f
5:30  -   -   -  20 25 mph 1013mb 68f 67f
5:20  -   -   -  20 25 mph 1013mb 67f 67f
5:10  -   -   -  20 25 mph 1013.1mb 68f 67f
5:00  -   -   -  22 27 mph 1013.1mb 68f 67f
4:50 3.5ft 19s 5s 20 25 mph 1013.3mb 68f 67f
4:40 3.5ft  -  5s 20 25 mph 1013.5mb 68f 67f
4:30  -   -   -  20 27 mph 1013.4mb 68f 67f
4:20  -   -   -  20 25 mph 1013.4mb 68f 68f
4:10  -   -   -  16 20 mph 1013.5mb 68f 68f
4:00  -   -   -  13 18 mph 1013.8mb 68f 68f
3:50 3.5ft 19s 6s 16 18 mph 1013.8mb 68f 68f
3:40 3.5ft  -  6s 13 18 mph 1013.8mb 68f 68f
3:30  -   -   -  13 18 mph 1013.8mb 68f 68f
3:20  -   -   -  11 16 mph 1013.9mb 68f 68f
3:10  -   -   -  13 16 mph 1013.9mb 68f 68f
3:00  -   -   -  13 16 mph 1014mb 68f 68f
2:50 3.5ft 19s 5s 11 13 mph 1014mb 68f 68f
2:40 3.5ft  -  5s 11 13 mph 1014.1mb 68f 68f
2:30  -   -   -  13 16 mph 1014.4mb 68f 68f
2:20  -   -   -  11 16 mph 1014.5mb 68f 67f
2:10  -   -   -  13 16 mph 1014.6mb 68f 67f
2:00  -   -   -  11 13 mph 1015mb 68f 67f
1:50 3.5ft 19s 6s 13 16 mph 1015mb 68f 67f
1:40 3.5ft  -  6s 11 13 mph 1015mb 68f 67f
1:30  -   -   -  7 11 mph 1015.5mb 68f 66f
1:20  -   -   -  9 11 mph 1015.4mb 68f 66f
1:10  -   -   -  9 11 mph 1015.5mb 68f 66f
1:00  -   -   -  9 13 mph 1015.6mb 68f 66f
12:50 4ft 19s 5s 7 11 mph 1015.8mb 67f 66f
12:40 4ft  -  5s 7 9 mph 1016mb 67f 66f
12:30  -   -   -  7 9 mph 1016.1mb 67f 66f
12:20  -   -   -  9
mph
1016.1mb 67f 66f
12:10  -   -   -  7 9 mph 1016.3mb 67f 66f
12:00  -   -   -  2 4 mph 1016.4mb 67f 66f
11:50 4ft  -  6s 2 4 mph 1016.4mb 67f 67f
11:40 4ft 19s 6s  -  mph - - -
11:30  -   -   -   -  2 mph 1016.8mb 67f 67f
11:20  -   -   -   -  2 mph 1016.6mb 67f 67f
11:10  -   -   -  2 4 mph 1016.8mb 67f 67f
11:00  -   -   -  4 7 mph 1016.9mb 67f 67f
10:50 4ft 19s 5s 4 7 mph 1016.6mb 67f 67f
10:40 4ft  -  5s 7 9 mph 1016.6mb 67f 66f
10:30  -   -   -  4 7 mph 1016.5mb 67f 67f
10:20  -   -   -  4 7 mph 1016.5mb 67f 66f
10:10  -   -   -  7 9 mph 1016.4mb 67f 66f
10:00  -   -   -  9
mph
1016.3mb 67f 66f
9:50 4ft 19s 5s 9 11 mph 1016mb 67f 66f
9:40 4ft  -  5s 9 11 mph 1016mb 67f 66f
9:30  -   -   -  9 13 mph 1015.8mb 67f 66f
9:20  -   -   -  11 13 mph 1015.6mb 67f 65f
9:10  -   -   -  11 13 mph 1015.5mb 67f 65f
9:00  -   -   -  13 16 mph 1015.4mb 67f 65f
8:50 4.5ft 19s 5s 13 18 mph 1015.3mb 67f 65f
8:40 4.5ft  -  5s 13 18 mph 1015.4mb 67f 65f
8:30  -   -   -  16 18 mph 1015.4mb 67f 65f
8:20  -   -   -  13 18 mph 1015.3mb 67f 65f
8:10  -   -   -  16 18 mph 1015.1mb 67f 65f
8:00  -   -   -  16 20 mph 1015mb 67f 65f
7:50 3.5ft 19s 5s 16 18 mph 1014.9mb 67f 65f
7:40 3.5ft  -  5s 13 16 mph 1014.6mb 67f 65f
7:30  -   -   -  13 18 mph 1014.5mb 67f 65f
7:20  -   -   -  13 18 mph 1014.3mb 67f 65f
7:10  -   -   -  13 18 mph 1014mb 67f 65f
7:00  -   -   -  16 18 mph 1014mb 67f 65f
6:50 4ft 19s 6s 16 20 mph 1014mb 67f 65f
6:40 4ft  -  6s 16 20 mph 1014mb 67f 65f
6:30  -   -   -  13 18 mph 1013.9mb 67f 66f
6:20  -   -   -  11 16 mph 1013.8mb 67f 66f
6:10  -   -   -  11 13 mph 1013.6mb 67f 66f
6:00  -   -   -  9 13 mph 1013.5mb 67f 67f
5:50 3.5ft 6s 5s 9 11 mph 1013.5mb 67f 67f
5:40  -   -   -  7 9 mph 1013.4mb 67f 66f
5:30  -   -   -  9 11 mph 1013.3mb 67f 67f
5:20  -   -   -  11 13 mph 1013.3mb 67f 67f
5:10  -   -   -  11 13 mph 1013.1mb 67f 67f
5:00  -   -   -  13 18 mph 1013mb 67f 67f
4:50 4ft 6s 5s 16 18 mph 1012.9mb 67f 67f
4:40 4ft  -  5s 16 20 mph 1013mb 67f 67f
4:30  -   -   -  13 18 mph 1013mb 67f 68f
4:20  -   -   -  13 18 mph 1012.9mb 67f 68f
4:10  -   -   -  11 16 mph 1012.9mb 67f 68f
4:00  -   -   -  9 13 mph 1012.9mb 67f 67f
3:50 3.5ft 19s 6s 9 11 mph 1013mb 67f 67f
3:40 3.5ft  -  6s 7 9 mph 1013mb 67f 67f
3:30  -   -   -  7 9 mph 1013.1mb 67f 67f
3:20  -   -   -  7 9 mph 1013mb 67f 67f
3:10  -   -   -  9 11 mph 1013mb 67f 67f
3:00  -   -   -  11 13 mph 1013mb 67f 67f
2:50 4ft 19s 5s 11 13 mph 1013mb 67f 67f
2:40 4ft  -  5s 13 16 mph 1013mb 67f 67f
2:30  -   -   -  13 16 mph 1013.1mb 67f 67f
2:20  -   -   -  13 16 mph 1013mb 67f 67f
2:10  -   -   -  11 16 mph 1013mb 67f 68f
2:00  -   -   -  11 16 mph 1013.3mb 67f 68f
1:50 4.5ft 7s 5s 16 22 mph 1013mb 67f 68f
1:40  -   -   -  16 20 mph 1012.6mb 67f 68f
1:30  -   -   -  9 13 mph 1013mb 67f 68f
1:20  -   -   -  9 13 mph 1013mb 67f 68f
1:10  -   -   -  9 13 mph 1013mb 67f 67f
1:00  -   -   -  13 18 mph 1012.8mb 67f 67f
12:50 4.5ft 7s 5s 20 27 mph 1012.4mb 67f 68f
12:40 4.5ft  -  5s 20 27 mph 1012.1mb 67f 67f
12:30  -   -   -  13 18 mph 1012.9mb 67f 67f
12:20  -   -   -  16 18 mph 1013mb 67f 67f
12:10  -   -   -  18 22 mph 1013mb 67f 67f
12:00  -   -   -  20 25 mph 1012.6mb 67f 67f
jue 09/22 11:50 5ft 6s 5s 16 20 mph 1012.9mb 67f 67f
11:40  -   -   -  13 18 mph 1013.3mb - 67f
11:30  -   -   -  16 18 mph 1013.3mb 67f 67f
11:20  -   -   -  18 20 mph 1013mb 67f 67f
11:10  -   -   -  20 25 mph 1012.9mb 67f 67f
11:00  -   -   -  20 25 mph 1012.8mb 67f 67f
10:50 6ft 7s 5s 18 22 mph 1012.8mb 67f 67f
10:40 6ft  -  5s 20 25 mph 1012.6mb 67f 67f
10:30  -   -   -  20 25 mph 1012.6mb 67f 67f
10:20  -   -   -  20 25 mph 1012.6mb 67f 67f
10:10  -   -   -  20 27 mph 1012.8mb 67f 67f
10:00  -   -   -  20 25 mph 1012.6mb 67f 67f
9:50 6ft 7s 5s 25 29 mph 1012.3mb 67f 67f
9:40 6ft  -  5s 22 27 mph 1012.1mb 67f 67f
9:30  -   -   -  20 27 mph 1012.1mb 67f 67f
9:20  -   -   -  18 25 mph 1012.3mb 67f 68f
9:10  -   -   -  20 27 mph 1012.3mb 67f 68f
9:00  -   -   -  22 27 mph 1012mb 68f 68f
8:50 7ft 6s 5s 25 29 mph 1011.8mb 68f 68f
8:40  -   -   -  25 31 mph 1011.4mb 68f 68f
8:30  -   -   -  25 29 mph 1011mb 68f 68f
8:20  -   -   -  25 31 mph 1010.5mb 68f 68f
8:10  -   -   -  25 29 mph 1010.5mb 68f 68f
8:00  -   -   -  25 31 mph 1010.6mb 68f 68f
7:50 6.5ft 6s 5s 25 29 mph 1010.4mb 68f 68f
7:40 6.5ft  -  5s 27 34 mph 1010mb 68f 69f
7:30  -   -   -  27 34 mph 1010mb 68f 69f
7:20  -   -   -  27 34 mph 1009.9mb 68f 69f
7:10  -   -   -  27 34 mph 1010mb 68f 69f
7:00  -   -   -  29 36 mph 1009.9mb 68f 69f
6:50 7ft 6s 5s 29 36 mph 1009.9mb 68f 69f
6:40 7ft  -  5s 31 36 mph 1009.8mb 68f 69f
6:30  -   -   -  31 38 mph 1009.6mb 68f 69f
6:20  -   -   -  31 38 mph 1009.8mb 69f 69f
6:10  -   -   -  29 36 mph 1009.6mb 69f 70f
6:00  -   -   -  29 36 mph 1009.6mb 69f 70f
5:50 6ft 7s 5s 25 31 mph 1009.6mb 69f 70f
5:40 6ft  -  5s 16 25 mph 1010.3mb 69f 71f